createdAt,value
2024-05-09T00:18:36.755Z,171.6
2024-05-09T00:38:36.515Z,161.3
2024-05-09T00:58:36.272Z,143.4
2024-05-09T01:18:36.026Z,128.1
2024-05-09T01:38:35.787Z,120.4
2024-05-09T01:58:35.553Z,110.2
2024-05-09T02:18:35.306Z,110.2
2024-05-09T02:38:35.063Z,97.3
2024-05-09T02:58:34.814Z,87.1
2024-05-09T03:18:34.591Z,82
2024-05-09T03:38:34.000Z,82
2024-05-09T03:58:34.103Z,66.6
2024-05-09T04:18:33.842Z,64.1
2024-05-09T04:38:33.614Z,59
2024-05-09T04:58:33.362Z,97.3
2024-05-09T05:18:33.121Z,115.3
2024-05-09T05:38:32.874Z,38.5
2024-05-09T05:58:32.651Z,33.4
2024-05-09T06:18:32.396Z,48.7
2024-05-09T06:38:32.158Z,64.1
2024-05-09T06:58:31.916Z,82
2024-05-09T07:18:31.674Z,110.2
2024-05-09T07:38:31.423Z,128.1
2024-05-09T07:58:31.182Z,151.1
2024-05-09T08:18:30.937Z,181.8
2024-05-09T08:38:30.701Z,230.5
2024-05-09T08:58:30.456Z,299.6
2024-05-09T09:18:30.213Z,355.9
2024-05-09T09:38:29.983Z,396.9
2024-05-09T10:18:29.495Z,471.1
2024-05-09T10:38:29.238Z,540.2
2024-05-09T10:58:28.998Z,609.4
2024-05-09T11:18:28.755Z,28.2
2024-05-09T11:38:28.508Z,41
2024-05-09T11:58:28.281Z,59
2024-05-09T12:18:28.027Z,76.9
2024-05-09T12:38:27.797Z,105
2024-05-09T12:58:27.551Z,140.9
2024-05-09T13:18:27.297Z,174.2
2024-05-09T13:38:27.064Z,123
2024-05-09T13:58:26.816Z,102.5
2024-05-09T14:18:26.582Z,94.8
2024-05-09T14:38:26.329Z,79.4
2024-05-09T14:58:26.088Z,79.4
2024-05-09T15:18:25.855Z,97.4
2024-05-09T15:38:25.618Z,105
2024-05-09T15:58:25.360Z,89.7
2024-05-09T16:18:25.132Z,76.9
2024-05-09T16:38:24.888Z,59
2024-05-09T16:58:24.647Z,51.3
2024-05-09T17:18:24.402Z,33.4
2024-05-09T17:38:24.157Z,25.7
2024-05-09T17:58:23.912Z,18
2024-05-09T18:18:23.656Z,7.8
2024-05-09T18:38:23.433Z,637.5
2024-05-09T18:58:23.182Z,617
2024-05-09T19:18:22.943Z,604.2
2024-05-09T19:38:22.687Z,591.4
2024-05-09T19:58:22.451Z,568.4
2024-05-09T20:18:22.209Z,540.2
2024-05-09T20:38:21.972Z,506.9
2024-05-09T20:58:21.713Z,476.2
2024-05-09T21:18:21.480Z,442.9
2024-05-09T21:38:21.236Z,427.6
2024-05-09T22:18:20.737Z,402
2024-05-09T22:38:20.498Z,378.9
2024-05-09T22:58:20.264Z,366.1
2024-05-09T23:18:20.016Z,353.4
2024-05-09T23:38:19.772Z,335.4
2024-05-09T23:58:19.530Z,327.8
